createdAt,value
2023-02-04T00:00:42.429Z,100.00
2023-02-04T00:03:11.609Z,100.00
2023-02-04T00:05:39.841Z,100.00
2023-02-04T00:08:08.059Z,100.00
2023-02-04T00:10:37.220Z,100.00
2023-02-04T00:13:05.979Z,100.00
2023-02-04T00:15:33.879Z,100.00
2023-02-04T00:18:01.811Z,100.00
2023-02-04T00:20:30.192Z,100.00
2023-02-04T00:22:58.497Z,100.00
2023-02-04T00:25:26.573Z,100.00
2023-02-04T00:27:54.635Z,100.00
2023-02-04T00:30:22.748Z,100.00
2023-02-04T00:32:55.113Z,100.00
2023-02-04T00:35:24.622Z,100.00
2023-02-04T00:37:54.048Z,100.00
2023-02-04T00:40:22.082Z,100.00
2023-02-04T00:42:50.133Z,100.00
2023-02-04T00:45:18.223Z,100.00
2023-02-04T00:47:49.167Z,100.00
2023-02-04T00:50:17.886Z,100.00
2023-02-04T00:52:45.985Z,100.00
2023-02-04T00:55:15.828Z,100.00
2023-02-04T00:57:47.874Z,100.00
2023-02-04T01:00:16.709Z,100.00
2023-02-04T01:02:45.453Z,100.00
2023-02-04T01:05:14.208Z,100.00
2023-02-04T01:07:42.344Z,100.00
2023-02-04T01:10:10.599Z,100.00
2023-02-04T01:12:38.977Z,100.00
2023-02-04T01:15:07.542Z,100.00
2023-02-04T01:17:37.934Z,100.00
2023-02-04T01:20:06.182Z,100.00
2023-02-04T01:22:34.321Z,100.00
2023-02-04T01:25:02.456Z,100.00
2023-02-04T01:27:43.820Z,100.00
2023-02-04T01:30:14.406Z,100.00
2023-02-04T01:32:42.778Z,100.00
2023-02-04T01:35:11.132Z,100.00
2023-02-04T01:37:39.721Z,100.00
2023-02-04T01:40:09.298Z,100.00
2023-02-04T01:42:37.550Z,100.00
2023-02-04T01:45:09.343Z,100.00
2023-02-04T01:47:38.651Z,100.00
2023-02-04T01:50:08.547Z,100.00
2023-02-04T01:52:40.343Z,100.00
2023-02-04T01:55:18.825Z,100.00
2023-02-04T01:57:47.875Z,100.00
2023-02-04T02:00:18.452Z,100.00
2023-02-04T02:02:51.244Z,100.00
2023-02-04T02:05:25.086Z,100.00
2023-02-04T02:07:55.585Z,100.00
2023-02-04T02:10:24.757Z,100.00
2023-02-04T02:12:55.218Z,100.00
2023-02-04T02:15:23.972Z,100.00
2023-02-04T02:17:54.152Z,100.00
2023-02-04T02:20:24.932Z,100.00
2023-02-04T02:23:24.635Z,100.00
2023-02-04T02:25:53.323Z,100.00
2023-02-04T02:28:23.884Z,100.00
2023-02-04T02:30:52.985Z,100.00
2023-02-04T02:33:21.912Z,100.00
2023-02-04T02:35:50.926Z,100.00
2023-02-04T02:38:20.321Z,100.00
2023-02-04T02:40:50.517Z,100.00
2023-02-04T02:43:22.143Z,100.00
2023-02-04T02:45:50.739Z,100.00
2023-02-04T02:48:19.198Z,100.00
2023-02-04T02:50:49.090Z,100.00
2023-02-04T02:53:20.190Z,100.00
2023-02-04T02:55:49.854Z,100.00
2023-02-04T02:58:33.615Z,100.00
2023-02-04T03:01:05.435Z,100.00
2023-02-04T03:03:47.556Z,100.00
2023-02-04T03:06:21.106Z,100.00
2023-02-04T03:08:53.088Z,100.00
2023-02-04T03:11:21.514Z,100.00
2023-02-04T03:13:51.778Z,100.00
2023-02-04T03:16:21.075Z,100.00
2023-02-04T03:18:50.356Z,100.00
2023-02-04T03:21:18.181Z,100.00
2023-02-04T03:23:46.526Z,100.00
2023-02-04T03:26:14.856Z,100.00
2023-02-04T03:28:43.513Z,100.00
2023-02-04T03:31:11.736Z,100.00
2023-02-04T03:33:40.044Z,100.00
2023-02-04T03:36:08.773Z,100.00
2023-02-04T03:38:37.129Z,100.00
2023-02-04T03:41:05.316Z,100.00
2023-02-04T03:43:34.127Z,100.00
2023-02-04T03:46:02.376Z,100.00
2023-02-04T03:48:30.517Z,100.00
2023-02-04T03:50:59.984Z,100.00
2023-02-04T03:53:28.048Z,100.00
2023-02-04T03:55:56.076Z,100.00
2023-02-04T03:58:24.064Z,100.00
2023-02-04T04:00:52.185Z,100.00
2023-02-04T04:03:20.250Z,100.00
2023-02-04T04:05:48.261Z,100.00
2023-02-04T04:08:16.729Z,100.00
2023-02-04T04:10:44.962Z,100.00
2023-02-04T04:13:12.938Z,100.00
2023-02-04T04:15:42.273Z,100.00
2023-02-04T04:18:11.072Z,100.00
2023-02-04T04:20:39.220Z,100.00
2023-02-04T04:23:07.295Z,100.00
2023-02-04T04:25:35.740Z,100.00
2023-02-04T04:28:04.164Z,100.00
2023-02-04T04:30:32.847Z,100.00
2023-02-04T04:33:00.813Z,100.00
2023-02-04T04:35:28.644Z,100.00
2023-02-04T04:37:56.416Z,100.00
2023-02-04T04:40:24.242Z,100.00
2023-02-04T04:42:52.128Z,100.00
2023-02-04T04:45:20.829Z,100.00
2023-02-04T04:47:48.977Z,100.00
2023-02-04T04:50:17.208Z,100.00
2023-02-04T04:52:45.232Z,100.00
2023-02-04T04:55:13.822Z,100.00
2023-02-04T04:57:41.985Z,100.00
2023-02-04T05:00:16.009Z,100.00
2023-02-04T05:02:44.151Z,100.00
2023-02-04T05:05:12.381Z,100.00
2023-02-04T05:07:40.612Z,100.00
2023-02-04T05:10:09.151Z,100.00
2023-02-04T05:12:37.267Z,100.00
2023-02-04T05:15:07.345Z,100.00
2023-02-04T05:17:35.514Z,100.00
2023-02-04T05:20:03.873Z,100.00
2023-02-04T05:22:31.836Z,100.00
2023-02-04T05:24:59.929Z,100.00
2023-02-04T05:27:27.965Z,100.00
2023-02-04T05:29:55.958Z,100.00
2023-02-04T05:32:23.965Z,100.00
2023-02-04T05:34:51.987Z,100.00
2023-02-04T05:37:21.505Z,100.00
2023-02-04T05:39:49.657Z,100.00
2023-02-04T05:42:17.697Z,100.00
2023-02-04T05:44:45.740Z,100.00
2023-02-04T05:47:13.848Z,100.00
2023-02-04T05:49:41.815Z,100.00
2023-02-04T05:52:09.962Z,100.00
2023-02-04T05:54:38.125Z,100.00
2023-02-04T05:57:06.253Z,100.00
2023-02-04T05:59:34.345Z,100.00
2023-02-04T06:02:02.230Z,100.00
2023-02-04T06:04:30.299Z,100.00
2023-02-04T06:06:58.535Z,100.00
2023-02-04T06:09:26.507Z,100.00
2023-02-04T06:11:54.567Z,100.00
2023-02-04T06:14:22.532Z,100.00
2023-02-04T06:16:50.595Z,100.00
2023-02-04T06:19:18.635Z,100.00
2023-02-04T06:21:46.714Z,100.00
2023-02-04T06:24:14.756Z,100.00
2023-02-04T06:26:43.025Z,100.00
2023-02-04T06:29:11.010Z,100.00
2023-02-04T06:31:39.226Z,100.00
2023-02-04T06:34:07.124Z,100.00
2023-02-04T06:36:34.911Z,100.00
2023-02-04T06:39:02.686Z,100.00
2023-02-04T06:41:30.553Z,100.00
2023-02-04T06:43:58.365Z,100.00
2023-02-04T06:46:26.140Z,100.00
2023-02-04T06:48:54.015Z,100.00
2023-02-04T06:51:21.859Z,100.00
2023-02-04T06:53:50.336Z,100.00
2023-02-04T06:56:18.169Z,100.00
2023-02-04T06:58:46.022Z,100.00
2023-02-04T07:01:13.848Z,100.00
2023-02-04T07:03:43.071Z,100.00
2023-02-04T07:06:10.872Z,100.00
2023-02-04T07:08:38.831Z,100.00
2023-02-04T07:11:06.844Z,100.00
2023-02-04T07:13:34.633Z,100.00
2023-02-04T07:16:02.789Z,100.00
2023-02-04T07:18:31.742Z,100.00
2023-02-04T07:21:00.716Z,100.00
2023-02-04T07:23:28.827Z,100.00
2023-02-04T07:25:57.578Z,100.00
2023-02-04T07:28:25.714Z,100.00
2023-02-04T07:30:53.573Z,100.00
2023-02-04T07:33:21.353Z,100.00
2023-02-04T07:35:49.198Z,100.00
2023-02-04T07:38:16.999Z,100.00
2023-02-04T07:40:44.730Z,100.00
2023-02-04T07:43:12.915Z,100.00
2023-02-04T07:45:40.841Z,100.00
2023-02-04T07:48:08.736Z,100.00
2023-02-04T07:50:37.246Z,100.00
2023-02-04T07:53:05.097Z,100.00
2023-02-04T07:55:33.202Z,100.00
2023-02-04T07:58:01.070Z,100.00
2023-02-04T08:00:28.969Z,100.00
2023-02-04T08:02:56.976Z,100.00
2023-02-04T08:05:25.063Z,99.51
2023-02-04T08:07:52.885Z,98.13
2023-02-04T08:10:21.639Z,98.15
2023-02-04T08:12:49.552Z,98.23
2023-02-04T08:15:17.365Z,96.73
2023-02-04T08:17:45.087Z,95.88
2023-02-04T08:20:12.939Z,94.67
2023-02-04T08:22:40.783Z,93.55
2023-02-04T08:25:10.292Z,93.99
2023-02-04T08:27:38.686Z,94.29
2023-02-04T08:30:07.484Z,92.64
2023-02-04T08:32:35.533Z,93.16
2023-02-04T08:35:04.971Z,92.98
2023-02-04T08:37:34.986Z,93.40
2023-02-04T08:40:07.134Z,93.36
2023-02-04T08:42:35.612Z,92.90
2023-02-04T08:45:04.108Z,91.78
2023-02-04T08:47:31.884Z,91.58
2023-02-04T08:49:59.748Z,90.43
2023-02-04T08:52:27.521Z,92.90
2023-02-04T08:54:55.287Z,92.31
2023-02-04T08:57:23.110Z,90.84
2023-02-04T08:59:50.878Z,91.87
2023-02-04T09:02:18.815Z,90.34
2023-02-04T09:04:46.737Z,88.54
2023-02-04T09:07:14.535Z,88.48
2023-02-04T09:09:42.307Z,87.48
2023-02-04T09:12:10.153Z,85.44
2023-02-04T09:14:38.057Z,85.33
2023-02-04T09:17:06.029Z,84.78
2023-02-04T09:19:33.875Z,83.79
2023-02-04T09:22:01.650Z,83.77
2023-02-04T09:24:29.407Z,83.48
2023-02-04T09:26:57.173Z,84.75
2023-02-04T09:29:25.030Z,84.03
2023-02-04T09:31:52.894Z,83.53
2023-02-04T09:34:20.756Z,83.04
2023-02-04T09:36:49.791Z,82.96
2023-02-04T09:39:17.584Z,82.90
2023-02-04T09:41:45.419Z,83.17
2023-02-04T09:44:16.825Z,84.19
2023-02-04T09:46:53.296Z,84.25
2023-02-04T09:49:21.290Z,82.38
2023-02-04T09:51:50.592Z,84.07
2023-02-04T09:54:23.761Z,84.38
2023-02-04T09:56:53.271Z,84.26
2023-02-04T09:59:24.544Z,82.51
2023-02-04T10:02:00.542Z,82.91
2023-02-04T10:04:29.592Z,82.15
2023-02-04T10:07:00.809Z,83.49
2023-02-04T10:09:29.094Z,83.27
2023-02-04T10:11:57.280Z,82.85
2023-02-04T10:14:25.582Z,80.67
2023-02-04T10:16:59.459Z,80.56
2023-02-04T10:19:29.268Z,81.76
2023-02-04T10:21:58.096Z,79.19
2023-02-04T10:24:28.376Z,79.03
2023-02-04T10:27:09.300Z,78.85
2023-02-04T10:29:38.555Z,77.96
2023-02-04T10:32:06.883Z,76.47
2023-02-04T10:34:40.146Z,75.70
2023-02-04T10:37:22.533Z,75.33
2023-02-04T10:39:51.318Z,74.71
2023-02-04T10:42:42.035Z,72.77
2023-02-04T10:45:32.254Z,73.75
2023-02-04T10:48:01.881Z,72.60
2023-02-04T10:50:33.917Z,73.46
2023-02-04T10:53:22.260Z,73.60
2023-02-04T10:55:51.609Z,74.29
2023-02-04T10:58:27.465Z,75.96
2023-02-04T11:00:55.977Z,73.84
2023-02-04T11:03:31.179Z,74.94
2023-02-04T11:06:02.032Z,75.18
2023-02-04T11:08:36.975Z,76.15
2023-02-04T11:11:17.304Z,75.03
2023-02-04T11:13:59.724Z,74.58
2023-02-04T11:16:47.302Z,75.79
2023-02-04T11:19:16.749Z,72.23
2023-02-04T11:21:46.412Z,71.47
2023-02-04T11:24:15.095Z,71.04
2023-02-04T11:26:57.637Z,70.36
2023-02-04T11:29:42.550Z,73.38
2023-02-04T11:32:35.544Z,72.24
2023-02-04T11:35:14.518Z,75.45
2023-02-04T11:37:45.904Z,75.29
2023-02-04T11:40:31.481Z,75.67
2023-02-04T11:43:09.969Z,74.84
2023-02-04T11:45:40.061Z,75.47
2023-02-04T11:48:22.267Z,76.15
2023-02-04T11:51:01.873Z,77.04
2023-02-04T11:53:36.028Z,75.52
2023-02-04T11:56:04.820Z,76.00
2023-02-04T11:58:33.596Z,75.40
2023-02-04T12:01:03.277Z,76.15
2023-02-04T12:03:37.424Z,75.26
2023-02-04T12:06:05.851Z,74.01
2023-02-04T12:08:40.894Z,76.58
2023-02-04T12:11:32.111Z,74.16
2023-02-04T12:14:16.495Z,74.06
2023-02-04T12:16:54.218Z,73.42
2023-02-04T12:19:25.647Z,73.96
2023-02-04T12:21:57.397Z,74.43
2023-02-04T12:24:25.773Z,74.28
2023-02-04T12:26:53.816Z,73.51
2023-02-04T12:29:22.176Z,74.17
2023-02-04T12:31:51.603Z,74.26
2023-02-04T12:34:19.689Z,74.45
2023-02-04T12:36:47.902Z,74.59
2023-02-04T12:39:15.983Z,72.99
2023-02-04T12:41:45.324Z,73.11
2023-02-04T12:44:20.251Z,72.07
2023-02-04T12:46:50.281Z,72.11
2023-02-04T12:49:19.012Z,72.93
2023-02-04T12:51:47.362Z,72.37
2023-02-04T12:54:15.716Z,71.11
2023-02-04T12:56:43.770Z,71.24
2023-02-04T12:59:12.541Z,71.38
2023-02-04T13:01:42.086Z,70.96
2023-02-04T13:04:10.401Z,69.76
2023-02-04T13:06:40.193Z,69.88
2023-02-04T13:09:09.792Z,69.45
2023-02-04T13:11:37.870Z,68.63
2023-02-04T13:14:06.271Z,67.17
2023-02-04T13:16:34.471Z,69.11
2023-02-04T13:19:03.266Z,67.04
2023-02-04T13:21:32.001Z,67.51
2023-02-04T13:24:01.185Z,67.84
2023-02-04T13:26:29.179Z,65.44
2023-02-04T13:28:59.182Z,65.78
2023-02-04T13:31:29.343Z,64.99
2023-02-04T13:33:58.719Z,65.91
2023-02-04T13:36:30.055Z,65.59
2023-02-04T13:39:01.445Z,65.86
2023-02-04T13:41:30.070Z,68.73
2023-02-04T13:44:04.450Z,67.09
2023-02-04T13:46:32.974Z,65.05
2023-02-04T13:49:02.231Z,65.44
2023-02-04T13:51:31.194Z,63.34
2023-02-04T13:54:00.593Z,62.70
2023-02-04T13:56:29.766Z,62.77
2023-02-04T13:58:58.358Z,63.17
2023-02-04T14:01:26.455Z,62.25
2023-02-04T14:03:55.072Z,62.61
2023-02-04T14:06:24.025Z,63.31
2023-02-04T14:08:52.395Z,64.62
2023-02-04T14:11:20.723Z,63.75
2023-02-04T14:13:48.758Z,62.97
2023-02-04T14:16:17.250Z,62.32
2023-02-04T14:18:45.437Z,61.45
2023-02-04T14:21:13.525Z,60.96
2023-02-04T14:23:42.778Z,61.36
2023-02-04T14:26:11.326Z,61.18
2023-02-04T14:28:39.409Z,62.27
2023-02-04T14:31:09.175Z,64.30
2023-02-04T14:33:37.333Z,63.81
2023-02-04T14:36:05.610Z,61.36
2023-02-04T14:38:34.370Z,60.71
2023-02-04T14:41:02.467Z,61.86
2023-02-04T14:43:37.802Z,61.79
2023-02-04T14:46:06.102Z,63.05
2023-02-04T14:48:34.476Z,62.37
2023-02-04T14:51:02.518Z,61.58
2023-02-04T14:53:30.436Z,62.05
2023-02-04T14:55:58.437Z,62.85
2023-02-04T14:58:27.980Z,62.31
2023-02-04T15:00:56.222Z,60.56
2023-02-04T15:03:24.317Z,60.73
2023-02-04T15:05:52.136Z,58.97
2023-02-04T15:08:20.663Z,58.65
2023-02-04T15:10:48.740Z,59.55
2023-02-04T15:13:17.056Z,60.41
2023-02-04T15:15:45.235Z,63.11
2023-02-04T15:18:13.503Z,66.53
2023-02-04T15:20:41.284Z,67.61
2023-02-04T15:23:13.080Z,70.09
2023-02-04T15:25:41.040Z,73.77
2023-02-04T15:28:11.677Z,76.62
2023-02-04T15:30:39.998Z,78.61
2023-02-04T15:33:07.931Z,81.26
2023-02-04T15:35:35.769Z,85.37
2023-02-04T15:38:03.605Z,86.83
2023-02-04T15:40:33.023Z,87.58
2023-02-04T15:43:01.025Z,90.48
2023-02-04T15:45:28.801Z,91.81
2023-02-04T15:47:56.678Z,94.36
2023-02-04T15:50:24.536Z,97.24
2023-02-04T15:52:52.396Z,99.04
2023-02-04T15:55:20.329Z,99.99
2023-02-04T15:57:48.143Z,100.00
2023-02-04T16:00:16.248Z,100.00
2023-02-04T16:02:44.043Z,100.00
2023-02-04T16:05:12.050Z,100.00
2023-02-04T16:07:39.958Z,100.00
2023-02-04T16:10:08.217Z,100.00
2023-02-04T16:12:36.006Z,100.00
2023-02-04T16:15:04.013Z,100.00
2023-02-04T16:17:32.007Z,100.00
2023-02-04T16:19:59.848Z,100.00
2023-02-04T16:22:27.897Z,100.00
2023-02-04T16:24:55.827Z,100.00
2023-02-04T16:27:23.706Z,100.00
2023-02-04T16:29:51.645Z,100.00
2023-02-04T16:32:21.181Z,100.00
2023-02-04T16:34:49.039Z,100.00
2023-02-04T16:37:16.852Z,100.00
2023-02-04T16:39:45.412Z,99.53
2023-02-04T16:42:13.222Z,99.27
2023-02-04T16:44:40.970Z,98.58
2023-02-04T16:47:09.848Z,98.85
2023-02-04T16:49:37.732Z,99.92
2023-02-04T16:52:05.823Z,99.27
2023-02-04T16:54:36.084Z,99.48
2023-02-04T16:57:03.995Z,99.81
2023-02-04T16:59:32.361Z,99.71
2023-02-04T17:02:00.979Z,100.00
2023-02-04T17:04:28.933Z,99.76
2023-02-04T17:06:56.900Z,98.95
2023-02-04T17:09:24.710Z,97.10
2023-02-04T17:11:53.413Z,96.08
2023-02-04T17:14:22.916Z,94.33
2023-02-04T17:16:52.463Z,93.10
2023-02-04T17:19:21.333Z,91.09
2023-02-04T17:21:49.332Z,88.91
2023-02-04T17:24:17.547Z,86.83
2023-02-04T17:26:45.346Z,85.69
2023-02-04T17:29:17.479Z,84.70
2023-02-04T17:31:45.366Z,82.75
2023-02-04T17:34:13.642Z,82.05
2023-02-04T17:36:41.473Z,81.60
2023-02-04T17:39:09.420Z,79.67
2023-02-04T17:41:37.315Z,78.29
2023-02-04T17:44:05.388Z,77.32
2023-02-04T17:46:34.451Z,76.13
2023-02-04T17:49:02.434Z,76.38
2023-02-04T17:51:30.276Z,75.56
2023-02-04T17:53:58.086Z,75.45
2023-02-04T17:56:26.334Z,74.63
2023-02-04T17:58:57.193Z,73.37
2023-02-04T18:01:26.042Z,73.24
2023-02-04T18:03:54.221Z,71.56
2023-02-04T18:06:29.955Z,70.65
2023-02-04T18:09:02.543Z,68.54
2023-02-04T18:11:36.458Z,68.81
2023-02-04T18:14:23.778Z,67.85
2023-02-04T18:16:57.089Z,67.01
2023-02-04T18:19:37.074Z,67.21
2023-02-04T18:22:14.400Z,66.56
2023-02-04T18:24:45.252Z,66.38
2023-02-04T18:27:31.879Z,67.13
2023-02-04T18:30:01.775Z,67.22
2023-02-04T18:32:36.863Z,68.29
2023-02-04T18:35:34.733Z,67.63
2023-02-04T18:38:03.010Z,67.97
2023-02-04T18:40:32.234Z,68.50
2023-02-04T18:43:16.250Z,68.10
2023-02-04T18:45:44.173Z,68.07
2023-02-04T18:48:21.022Z,68.55
2023-02-04T18:50:51.665Z,68.41
2023-02-04T18:53:25.640Z,69.30
2023-02-04T18:55:58.034Z,68.97
2023-02-04T18:58:35.030Z,69.96
2023-02-04T19:01:09.754Z,70.21
2023-02-04T19:03:43.690Z,69.49
2023-02-04T19:06:29.625Z,70.71
2023-02-04T19:09:24.970Z,70.68
2023-02-04T19:11:58.231Z,70.74
2023-02-04T19:14:44.704Z,70.58
2023-02-04T19:17:25.572Z,70.63
2023-02-04T19:19:57.905Z,70.35
2023-02-04T19:22:42.506Z,70.87
2023-02-04T19:25:22.336Z,71.60
2023-02-04T19:28:00.960Z,70.68
2023-02-04T19:30:29.127Z,69.55
2023-02-04T19:33:02.016Z,68.87
2023-02-04T19:35:40.515Z,68.11
2023-02-04T19:38:29.506Z,68.76
2023-02-04T19:40:57.338Z,69.26
2023-02-04T19:43:38.251Z,69.37
2023-02-04T19:46:21.477Z,69.26
2023-02-04T19:48:49.769Z,69.74
2023-02-04T19:51:24.742Z,69.38
2023-02-04T19:54:00.329Z,69.46
2023-02-04T19:56:40.238Z,69.90
2023-02-04T19:59:22.781Z,70.09
2023-02-04T20:02:15.793Z,69.88
2023-02-04T20:04:47.475Z,69.92
2023-02-04T20:07:29.361Z,69.72
2023-02-04T20:10:06.169Z,69.88
2023-02-04T20:12:34.082Z,69.79
2023-02-04T20:15:12.519Z,70.32
2023-02-04T20:17:45.994Z,70.78
2023-02-04T20:20:24.430Z,71.13
2023-02-04T20:23:14.823Z,71.64
2023-02-04T20:25:45.197Z,72.07
2023-02-04T20:28:20.381Z,72.23
2023-02-04T20:30:50.073Z,72.41
2023-02-04T20:33:33.310Z,72.43
2023-02-04T20:36:25.651Z,72.30
2023-02-04T20:39:14.745Z,72.85
2023-02-04T20:41:43.150Z,73.85
2023-02-04T20:44:32.598Z,74.51
2023-02-04T20:47:21.001Z,73.96
2023-02-04T20:49:56.994Z,73.62
2023-02-04T20:52:40.153Z,74.53
2023-02-04T20:55:32.943Z,75.38
2023-02-04T20:58:11.324Z,74.84
2023-02-04T21:00:40.745Z,74.67
2023-02-04T21:03:22.915Z,73.26
2023-02-04T21:05:52.579Z,73.91
2023-02-04T21:08:28.142Z,73.02
2023-02-04T21:10:57.437Z,72.43
2023-02-04T21:13:25.776Z,73.15
2023-02-04T21:15:54.036Z,73.25
2023-02-04T21:18:22.127Z,73.92
2023-02-04T21:20:50.320Z,73.97
2023-02-04T21:23:19.490Z,75.05
2023-02-04T21:25:47.728Z,75.73
2023-02-04T21:28:16.123Z,76.70
2023-02-04T21:30:44.605Z,76.87
2023-02-04T21:33:12.702Z,77.10
2023-02-04T21:35:40.619Z,77.96
2023-02-04T21:38:08.825Z,77.77
2023-02-04T21:40:38.449Z,78.38
2023-02-04T21:43:08.355Z,79.06
2023-02-04T21:45:37.946Z,78.76
2023-02-04T21:48:07.955Z,78.71
2023-02-04T21:50:38.869Z,79.27
2023-02-04T21:53:08.773Z,79.16
2023-02-04T21:55:37.774Z,79.16
2023-02-04T21:58:06.244Z,78.50
2023-02-04T22:00:34.254Z,76.64
2023-02-04T22:03:02.184Z,77.28
2023-02-04T22:05:30.200Z,76.03
2023-02-04T22:07:59.818Z,74.72
2023-02-04T22:10:28.241Z,73.23
2023-02-04T22:12:56.749Z,72.66
2023-02-04T22:15:25.121Z,72.71
2023-02-04T22:17:54.230Z,72.73
2023-02-04T22:20:25.403Z,72.97
2023-02-04T22:22:54.110Z,72.90
2023-02-04T22:25:22.170Z,74.07
2023-02-04T22:27:50.462Z,73.94
2023-02-04T22:30:19.433Z,73.62
2023-02-04T22:32:47.514Z,74.37
2023-02-04T22:35:15.784Z,74.52
2023-02-04T22:37:43.921Z,74.91
2023-02-04T22:40:12.709Z,73.42
2023-02-04T22:42:40.759Z,73.77
2023-02-04T22:45:10.378Z,72.92
2023-02-04T22:47:38.318Z,73.25
2023-02-04T22:50:06.634Z,73.45
2023-02-04T22:52:34.495Z,73.39
2023-02-04T22:55:02.308Z,73.45
2023-02-04T22:57:30.166Z,73.77
2023-02-04T22:59:58.055Z,73.02
2023-02-04T23:02:25.927Z,74.29
2023-02-04T23:04:53.775Z,75.31
2023-02-04T23:07:21.640Z,74.90
2023-02-04T23:09:49.607Z,75.41
2023-02-04T23:12:17.393Z,76.86
2023-02-04T23:14:47.996Z,76.79
2023-02-04T23:17:17.660Z,76.72
2023-02-04T23:19:45.776Z,77.44
2023-02-04T23:22:14.872Z,77.75
2023-02-04T23:24:43.598Z,77.85
2023-02-04T23:27:12.197Z,78.15
2023-02-04T23:29:40.332Z,79.16
2023-02-04T23:32:09.057Z,79.26
2023-02-04T23:34:36.944Z,79.98
2023-02-04T23:37:04.813Z,79.62
2023-02-04T23:39:32.937Z,80.51
2023-02-04T23:42:01.090Z,81.30
2023-02-04T23:44:29.037Z,80.04
2023-02-04T23:46:56.924Z,80.49
2023-02-04T23:49:24.760Z,80.18
2023-02-04T23:51:52.526Z,79.80
2023-02-04T23:54:20.273Z,79.43
2023-02-04T23:56:48.180Z,80.22
2023-02-04T23:59:16.072Z,80.49
